Terminal Aerodrome Forecast
Issued by NWS Topeka, KS

Home | Current Version | Previous Version | Text Only | Print | Product List | Glossary On
Versions: 1 2 3 4 5 6 7 8 9 10 11 12 13 14 15
000
FTUS43 KTOP 281100
TAFTOP
TAF
KTOP 281120Z 2812/2912 16008KT P6SM FEW250
     FM281700 20015G22KT P6SM SCT250
     FM282300 25008KT P6SM FEW250
     FM290430 32015G23KT P6SM FEW250
     FM290900 33017G26KT P6SM BKN025=

USA.gov is the U.S. government's official web portal to all federal, state and local government web resources and services.